CST,Max TemperatureF,Mean TemperatureF,Min TemperatureF,Max Dew PointF,MeanDew PointF,Min DewpointF,Max Humidity, Mean Humidity, Min Humidity, Max Sea Level PressureIn, Mean Sea Level PressureIn, Min Sea Level PressureIn, Max VisibilityMiles, Mean VisibilityMiles, Min VisibilityMiles, Max Wind SpeedMPH, Mean Wind SpeedMPH, Max Gust SpeedMPH,PrecipitationIn, CloudCover, Events, WindDirDegrees
2012-2-1,39,34,30,32,30,28,93,80,75,30.12,30.04,29.86,10,10,7,15,8,23,0.00,6,,288
2012-2-2,33,30,26,30,29,25,93,90,87,30.38,30.24,30.14,10,6,1,8,2,,0.00,7,,309
2012-2-3,35,32,28,30,29,27,93,86,75,30.50,30.46,30.41,10,8,5,5,1,,0.00,7,,42
2012-2-4,46,32,19,30,24,18,93,69,37,30.40,30.29,30.19,10,8,4,8,2,,0.00,0,,288
2012-2-5,41,32,23,28,26,19,93,80,57,30.33,30.25,30.18,10,10,7,10,2,,0.00,2,,248
2012-2-6,41,36,30,28,27,27,87,79,61,30.13,30.08,30.03,10,9,7,16,10,21,0.00,4,,265
2012-2-7,33,30,26,28,19,14,81,63,48,30.46,30.37,30.20,10,10,10,14,7,17,0.00,6,,32
2012-2-8,33,24,14,14,5,-4,79,47,20,30.41,30.33,30.22,10,10,10,14,6,18,0.00,0,,272
2012-2-9,37,28,19,12,9,7,63,44,28,30.20,30.09,29.95,10,10,10,17,10,22,0.00,0,,246
2012-2-10,32,24,15,28,14,-4,93,69,36,30.21,30.01,29.85,10,6,0,20,9,26,0.00,6,Snow,343
2012-2-11,19,12,6,-2,-5,-9,57,45,35,30.37,30.33,30.29,10,10,10,20,10,25,0.00,0,,292
2012-2-12,32,22,12,5,0,-4,53,40,27,30.28,30.23,30.15,10,10,10,15,11,21,0.00,0,,276
2012-2-13,33,22,10,27,12,1,86,62,43,30.10,29.97,29.82,10,9,2,10,4,,0.00,5,Snow,200
2012-2-14,35,32,30,28,28,27,93,85,75,29.86,29.79,29.75,10,7,1,9,2,,0.00,8,Snow,221
2012-2-15,42,37,32,32,30,28,93,82,65,30.00,29.96,29.90,10,6,2,12,5,,0.00,6,,177
2012-2-16,44,36,28,32,25,18,100,68,39,30.03,29.99,29.94,10,7,1,18,6,25,0.00,3,,281
2012-2-17,35,30,24,32,26,19,93,81,65,30.06,30.02,29.95,10,10,2,12,5,,0.03,6,Snow,185
2012-2-18,35,30,26,27,18,14,80,59,41,30.22,30.15,30.03,10,10,4,12,7,18,0.00,3,Snow,313
2012-2-19,42,28,15,23,17,10,86,66,27,30.20,30.16,30.11,10,10,10,9,1,,0.00,0,,244
2012-2-20,42,30,19,25,20,16,93,67,42,30.23,30.17,30.02,10,10,10,15,3,23,0.00,0,,152
2012-2-21,41,36,32,34,31,27,100,85,70,29.84,29.58,29.48,10,6,1,24,7,30,0.01,8,Rain-Snow,189
2012-2-22,41,36,30,25,23,21,75,62,45,29.51,29.43,29.36,10,10,10,20,12,25,0.00,2,,272
2012-2-23,41,31,21,27,21,19,93,69,42,29.60,29.53,29.43,10,10,7,6,1,,0.00,1,,66
2012-2-24,33,32,28,28,24,14,87,72,55,29.84,29.67,29.57,10,9,1,18,7,26,0.00,8,Snow,316
2012-2-25,33,27,21,19,15,12,86,60,44,30.24,30.11,29.88,10,10,10,14,8,23,0.00,2,,284
2012-2-26,44,34,23,28,22,14,80,60,45,30.24,29.96,29.80,10,10,10,24,11,34,0.00,3,,169
2012-2-27,33,32,30,23,20,18,69,61,52,30.41,30.16,29.91,10,10,10,24,17,32,0.00,6,,274
2012-2-28,37,30,23,28,22,19,86,70,56,30.43,30.30,30.08,10,10,5,12,3,16,0.00,7,Snow,122
2012-2-29,37,34,32,36,33,32,100,92,87,29.87,29.48,29.35,7,3,1,20,11,28,0.56,8,Rain-Snow,112